Time;durP1;ratioP1;P1;durP2;ratioP2;P2;SDS_P1;SDS_P2;PMS_P1;PMS_P2;Temp;Humidity;BMP_temperature;BMP_pressure;BME280_temperature;BME280_humidity;BME280_pressure;Samples;Min_cycle;Max_cycle;Signal;HPM_P1;HPM_P2
2021/07/10 00:00:33;;;;;;;6.25;4.82;;;;;;;;;;4997041;28;20029;-85
2021/07/10 00:03:00;;;;;;;7.40;5.53;;;;;;;;;;4998168;28;20033;-85
2021/07/10 00:05:26;;;;;;;9.13;4.85;;;;;;;;;;4995892;28;20041;-85
2021/07/10 00:07:53;;;;;;;7.88;4.53;;;;;;;;;;5003391;28;20083;-85
2021/07/10 00:10:19;;;;;;;7.53;5.70;;;;;;;;;;4999004;28;20025;-85
2021/07/10 00:12:45;;;;;;;5.95;4.47;;;;;;;;;;4999152;28;20041;-85
2021/07/10 00:15:14;;;;;;;6.13;4.95;;;;;;;;;;4981419;28;20021;-85
2021/07/10 00:17:40;;;;;;;5.68;4.15;;;;;;;;;;4998247;28;20053;-85
2021/07/10 00:20:07;;;;;;;6.78;4.90;;;;;;;;;;5015178;28;20061;-85
2021/07/10 00:22:35;;;;;;;6.20;4.63;;;;;;;;;;4982218;28;20068;-85
2021/07/10 00:25:03;;;;;;;6.95;5.72;;;;;;;;;;5015160;28;20037;-85
2021/07/10 00:27:29;;;;;;;6.85;4.90;;;;;;;;;;5014515;28;20079;-85
2021/07/10 00:29:54;;;;;;;6.35;5.15;;;;;;;;;;4982681;28;20033;-85
2021/07/10 00:32:21;;;;;;;5.75;4.47;;;;;;;;;;4982194;28;20033;-85
2021/07/10 00:34:46;;;;;;;6.95;4.93;;;;;;;;;;4998340;28;20112;-85
2021/07/10 00:37:12;;;;;;;6.60;5.00;;;;;;;;;;5004899;28;20044;-85
2021/07/10 00:39:38;;;;;;;6.43;4.85;;;;;;;;;;4996264;28;20030;-85
2021/07/10 00:42:04;;;;;;;6.28;5.00;;;;;;;;;;4998330;28;20033;-85
2021/07/10 00:44:30;;;;;;;6.40;4.50;;;;;;;;;;4981998;28;20105;-85
2021/07/10 00:46:57;;;;;;;6.60;4.85;;;;;;;;;;4998201;28;20129;-85
2021/07/10 00:49:22;;;;;;;6.90;4.63;;;;;;;;;;4997480;28;20032;-86
2021/07/10 00:51:48;;;;;;;6.80;4.78;;;;;;;;;;4998019;28;20025;-85
2021/07/10 00:54:13;;;;;;;5.85;4.82;;;;;;;;;;4997812;28;20021;-85
2021/07/10 00:56:40;;;;;;;6.35;5.10;;;;;;;;;;4998052;28;20033;-85
2021/07/10 00:59:06;;;;;;;5.43;4.20;;;;;;;;;;4997829;28;20061;-84
2021/07/10 01:01:33;;;;;;;7.40;4.90;;;;;;;;;;4997808;28;20491;-85
2021/07/10 01:03:59;;;;;;;6.55;4.47;;;;;;;;;;5027346;28;20029;-85
2021/07/10 01:06:27;;;;;;;8.07;4.15;;;;;;;;;;5012601;28;20037;-85
2021/07/10 01:08:53;;;;;;;5.15;4.47;;;;;;;;;;5011762;28;20033;-84
2021/07/10 01:11:19;;;;;;;6.88;4.38;;;;;;;;;;5027933;28;20109;-84
2021/07/10 01:13:47;;;;;;;6.40;4.63;;;;;;;;;;5012845;28;20041;-85
2021/07/10 01:16:13;;;;;;;6.40;4.88;;;;;;;;;;5013554;28;20033;-85
2021/07/10 01:18:40;;;;;;;6.00;4.32;;;;;;;;;;4997449;28;20021;-84
2021/07/10 01:21:05;;;;;;;5.18;4.38;;;;;;;;;;4998289;28;20037;-85
2021/07/10 01:23:31;;;;;;;7.97;4.20;;;;;;;;;;5030989;28;20091;-85
2021/07/10 01:25:56;;;;;;;5.72;4.70;;;;;;;;;;4997917;28;20072;-85
2021/07/10 01:28:23;;;;;;;5.05;4.40;;;;;;;;;;4997465;28;20044;-84
2021/07/10 01:30:49;;;;;;;6.20;4.43;;;;;;;;;;4997713;28;20079;-85
2021/07/10 01:33:14;;;;;;;6.95;5.07;;;;;;;;;;4997674;28;20021;-85
2021/07/10 01:35:40;;;;;;;5.72;4.10;;;;;;;;;;5030662;28;20130;-85
2021/07/10 01:38:08;;;;;;;4.55;4.03;;;;;;;;;;5013638;28;20068;-85
2021/07/10 01:40:35;;;;;;;5.40;4.43;;;;;;;;;;5014110;28;20029;-85
2021/07/10 01:43:04;;;;;;;5.53;4.80;;;;;;;;;;5014024;28;20368;-85
2021/07/10 01:45:34;;;;;;;5.97;5.05;;;;;;;;;;5010659;28;20057;-85
2021/07/10 01:48:02;;;;;;;6.35;5.00;;;;;;;;;;5013828;28;20041;-85
2021/07/10 01:50:29;;;;;;;4.70;4.20;;;;;;;;;;5013868;28;20041;-85
2021/07/10 01:52:56;;;;;;;4.88;4.15;;;;;;;;;;5030231;28;20086;-85
2021/07/10 01:55:21;;;;;;;6.70;4.78;;;;;;;;;;4993979;28;20049;-84
2021/07/10 01:57:49;;;;;;;5.30;4.70;;;;;;;;;;4997615;28;20033;-85
2021/07/10 02:00:19;;;;;;;4.93;3.97;;;;;;;;;;4981161;28;20112;-85
2021/07/10 02:02:46;;;;;;;5.47;4.72;;;;;;;;;;5032202;28;20119;-84
2021/07/10 02:05:11;;;;;;;5.80;4.10;;;;;;;;;;4981675;28;20042;-85
2021/07/10 02:07:38;;;;;;;6.90;4.18;;;;;;;;;;5006175;28;20032;-85
2021/07/10 02:10:08;;;;;;;5.95;4.85;;;;;;;;;;4985198;28;20025;-84
2021/07/10 02:12:35;;;;;;;6.88;4.82;;;;;;;;;;4984952;28;20056;-85
2021/07/10 02:15:01;;;;;;;6.40;4.97;;;;;;;;;;5001315;28;20044;-84
2021/07/10 02:17:27;;;;;;;5.50;4.18;;;;;;;;;;5000457;28;20021;-85
2021/07/10 02:19:54;;;;;;;4.63;4.13;;;;;;;;;;5001199;28;20037;-84
2021/07/10 02:22:20;;;;;;;6.75;4.97;;;;;;;;;;4984402;28;20037;-85
2021/07/10 02:24:47;;;;;;;6.50;4.55;;;;;;;;;;5016680;28;20042;-84
2021/07/10 02:27:14;;;;;;;5.13;4.32;;;;;;;;;;5017217;28;20033;-85
2021/07/10 02:29:41;;;;;;;5.60;4.78;;;;;;;;;;5000838;28;20402;-84
2021/07/10 02:32:07;;;;;;;6.10;4.90;;;;;;;;;;4983586;28;20036;-85
2021/07/10 02:34:33;;;;;;;5.10;4.25;;;;;;;;;;4984437;28;20036;-85
2021/07/10 02:36:59;;;;;;;5.65;4.70;;;;;;;;;;5000117;28;20025;-85
2021/07/10 02:39:25;;;;;;;4.80;4.30;;;;;;;;;;4984524;28;20040;-85
2021/07/10 02:41:52;;;;;;;5.30;4.50;;;;;;;;;;5000790;28;20037;-84
2021/07/10 02:44:18;;;;;;;5.70;4.72;;;;;;;;;;5016567;28;20037;-85
2021/07/10 02:46:44;;;;;;;5.57;4.40;;;;;;;;;;5000284;28;20045;-85
2021/07/10 02:49:09;;;;;;;6.68;4.35;;;;;;;;;;5000774;28;20039;-85
2021/07/10 02:51:38;;;;;;;6.65;5.13;;;;;;;;;;4983979;28;20065;-84
2021/07/10 02:54:05;;;;;;;5.38;4.05;;;;;;;;;;4984176;28;20025;-84
2021/07/10 02:56:30;;;;;;;7.25;4.55;;;;;;;;;;5000385;28;20115;-83
2021/07/10 02:58:57;;;;;;;5.50;3.90;;;;;;;;;;4983312;28;20492;-84
2021/07/10 03:01:22;;;;;;;5.65;4.25;;;;;;;;;;5000010;28;20038;-84
2021/07/10 03:03:48;;;;;;;5.97;4.70;;;;;;;;;;4999636;28;20052;-84
2021/07/10 03:06:14;;;;;;;5.35;3.88;;;;;;;;;;5000070;28;20033;-84
2021/07/10 03:08:42;;;;;;;5.18;4.38;;;;;;;;;;5015946;28;20076;-84
2021/07/10 03:11:08;;;;;;;5.55;5.05;;;;;;;;;;5016609;28;20029;-85
2021/07/10 03:13:34;;;;;;;6.10;4.55;;;;;;;;;;5010476;28;20034;-85
2021/07/10 03:15:59;;;;;;;6.15;4.38;;;;;;;;;;4989051;28;20472;-85
2021/07/10 03:18:25;;;;;;;4.90;4.10;;;;;;;;;;5032474;28;20040;-84
2021/07/10 03:20:50;;;;;;;5.18;4.68;;;;;;;;;;4999606;28;20055;-85
2021/07/10 03:23:16;;;;;;;6.35;4.47;;;;;;;;;;4983891;28;20041;-85
2021/07/10 03:25:47;;;;;;;5.50;4.32;;;;;;;;;;4983257;28;20034;-85
2021/07/10 03:28:12;;;;;;;5.90;4.72;;;;;;;;;;5000935;28;20495;-81
2021/07/10 03:30:37;;;;;;;5.50;4.45;;;;;;;;;;4983231;28;20041;-82
2021/07/10 03:33:03;;;;;;;5.00;4.03;;;;;;;;;;4999112;28;20029;-81
2021/07/10 03:35:29;;;;;;;6.43;4.43;;;;;;;;;;4999371;28;20040;-83
2021/07/10 03:37:55;;;;;;;5.15;4.55;;;;;;;;;;4998771;28;20369;-81
2021/07/10 03:40:22;;;;;;;5.03;4.18;;;;;;;;;;5015067;28;20033;-81
2021/07/10 03:42:48;;;;;;;5.30;4.28;;;;;;;;;;4983424;28;20029;-82
2021/07/10 03:45:13;;;;;;;7.78;4.70;;;;;;;;;;4979707;28;20545;-82
2021/07/10 03:47:39;;;;;;;6.65;4.22;;;;;;;;;;5000748;28;20104;-83
2021/07/10 03:50:06;;;;;;;7.30;4.32;;;;;;;;;;4982913;28;20025;-83
2021/07/10 03:52:33;;;;;;;4.72;3.90;;;;;;;;;;4995013;28;20028;-82
2021/07/10 03:55:00;;;;;;;5.80;4.07;;;;;;;;;;5011792;28;20484;-83
2021/07/10 03:57:29;;;;;;;6.18;4.20;;;;;;;;;;5023972;28;20521;-83
2021/07/10 03:59:54;;;;;;;4.97;4.40;;;;;;;;;;4999395;28;20059;-83
2021/07/10 04:02:19;;;;;;;5.38;4.47;;;;;;;;;;4997921;28;20799;-82
2021/07/10 04:04:45;;;;;;;4.75;3.90;;;;;;;;;;4998036;28;20045;-82
2021/07/10 04:07:10;;;;;;;4.68;4.00;;;;;;;;;;4998272;28;20038;-81
2021/07/10 04:09:36;;;;;;;5.00;3.97;;;;;;;;;;4998460;28;20025;-82
2021/07/10 04:12:01;;;;;;;6.30;4.15;;;;;;;;;;5015031;28;20391;-81
2021/07/10 04:14:29;;;;;;;5.78;4.40;;;;;;;;;;5014837;28;20029;-82
2021/07/10 04:16:55;;;;;;;6.43;4.28;;;;;;;;;;5015261;28;20443;-81
2021/07/10 04:19:20;;;;;;;5.18;4.13;;;;;;;;;;4997877;28;20037;-82
2021/07/10 04:21:45;;;;;;;4.22;3.67;;;;;;;;;;4998830;28;20068;-81
2021/07/10 04:24:11;;;;;;;5.50;4.45;;;;;;;;;;4997115;28;20030;-82
2021/07/10 04:26:36;;;;;;;5.88;4.45;;;;;;;;;;4997970;28;20037;-82
2021/07/10 04:29:02;;;;;;;5.43;4.35;;;;;;;;;;4998297;28;20060;-81
2021/07/10 04:31:27;;;;;;;4.93;3.72;;;;;;;;;;5011873;28;20530;-82
2021/07/10 04:33:53;;;;;;;6.00;4.63;;;;;;;;;;4998471;28;20490;-82
2021/07/10 04:36:18;;;;;;;5.43;3.83;;;;;;;;;;4998360;28;20026;-82
2021/07/10 04:38:44;;;;;;;5.43;4.55;;;;;;;;;;4997657;28;20144;-82
2021/07/10 04:41:09;;;;;;;5.35;4.30;;;;;;;;;;5014403;28;20029;-82
2021/07/10 04:43:35;;;;;;;5.22;4.07;;;;;;;;;;5014758;28;20029;-82
2021/07/10 04:46:00;;;;;;;5.80;3.78;;;;;;;;;;5027026;28;20037;-82
2021/07/10 04:48:26;;;;;;;5.72;4.03;;;;;;;;;;5029414;28;20048;-82
2021/07/10 04:50:51;;;;;;;4.40;3.67;;;;;;;;;;4998389;28;20060;-82
2021/07/10 04:53:17;;;;;;;5.68;4.38;;;;;;;;;;4997858;28;20428;-82
2021/07/10 04:55:42;;;;;;;5.40;4.55;;;;;;;;;;5013853;28;20083;-82
2021/07/10 04:58:08;;;;;;;5.47;4.30;;;;;;;;;;5014436;28;20030;-82
2021/07/10 05:00:34;;;;;;;5.28;3.85;;;;;;;;;;5030747;28;20034;-81
2021/07/10 05:02:59;;;;;;;5.10;4.50;;;;;;;;;;4997730;28;20026;-82
2021/07/10 05:05:25;;;;;;;5.38;3.78;;;;;;;;;;4997542;28;20025;-82
2021/07/10 05:07:50;;;;;;;4.88;4.32;;;;;;;;;;4997298;28;20484;-82
2021/07/10 05:10:16;;;;;;;5.60;4.45;;;;;;;;;;4997817;28;20064;-81
2021/07/10 05:12:41;;;;;;;5.45;4.40;;;;;;;;;;4994151;28;20523;-82
2021/07/10 05:15:07;;;;;;;4.72;4.15;;;;;;;;;;5014031;28;20070;-82
2021/07/10 05:17:33;;;;;;;5.57;4.05;;;;;;;;;;4996968;28;20049;-81
2021/07/10 05:19:58;;;;;;;5.03;3.78;;;;;;;;;;5014218;28;20029;-82
2021/07/10 05:22:24;;;;;;;4.50;3.63;;;;;;;;;;4997634;28;20041;-81
2021/07/10 05:24:49;;;;;;;4.65;4.00;;;;;;;;;;4996727;28;20029;-82
2021/07/10 05:27:15;;;;;;;5.20;3.83;;;;;;;;;;4981124;28;20060;-82
2021/07/10 05:29:40;;;;;;;4.00;3.63;;;;;;;;;;4996985;28;20041;-81
2021/07/10 05:32:06;;;;;;;6.18;3.85;;;;;;;;;;5013948;28;20030;-82
2021/07/10 05:34:32;;;;;;;5.47;3.92;;;;;;;;;;4994202;28;20036;-82
2021/07/10 05:36:57;;;;;;;4.43;3.70;;;;;;;;;;4999756;28;20526;-81
2021/07/10 05:39:22;;;;;;;4.40;3.65;;;;;;;;;;5017284;28;20026;-81
2021/07/10 05:41:48;;;;;;;5.15;4.18;;;;;;;;;;5001786;28;20037;-81
2021/07/10 05:44:14;;;;;;;4.82;4.00;;;;;;;;;;5001485;28;20434;-81
2021/07/10 05:46:39;;;;;;;6.25;3.75;;;;;;;;;;5000966;28;20029;-81
2021/07/10 05:49:04;;;;;;;5.40;4.22;;;;;;;;;;5001283;28;20029;-81
2021/07/10 05:51:30;;;;;;;6.45;4.80;;;;;;;;;;5000868;28;20033;-81
2021/07/10 05:53:55;;;;;;;4.78;4.10;;;;;;;;;;5017694;28;20136;-81
2021/07/10 05:56:21;;;;;;;6.05;3.90;;;;;;;;;;5000866;28;20495;-82
2021/07/10 05:58:46;;;;;;;5.70;4.13;;;;;;;;;;5017490;28;20079;-81
2021/07/10 06:01:12;;;;;;;5.05;3.97;;;;;;;;;;5001056;28;20471;-81
2021/07/10 06:03:37;;;;;;;4.40;3.83;;;;;;;;;;5000666;28;20037;-81
2021/07/10 06:06:03;;;;;;;6.88;3.60;;;;;;;;;;5017408;28;20041;-81
2021/07/10 06:08:28;;;;;;;4.57;4.05;;;;;;;;;;5000459;28;20039;-82
2021/07/10 06:10:54;;;;;;;5.15;4.07;;;;;;;;;;5000880;28;20029;-81
2021/07/10 06:13:19;;;;;;;6.00;4.47;;;;;;;;;;5016892;28;20044;-82
2021/07/10 06:15:44;;;;;;;5.95;3.58;;;;;;;;;;5016850;28;20033;-81
2021/07/10 06:18:10;;;;;;;4.88;4.20;;;;;;;;;;5017063;28;20037;-82
2021/07/10 06:20:37;;;;;;;5.88;4.43;;;;;;;;;;4991546;28;20029;-82
2021/07/10 06:23:05;;;;;;;4.78;3.97;;;;;;;;;;5017384;28;20167;-82
2021/07/10 06:25:31;;;;;;;4.60;3.88;;;;;;;;;;5016660;28;20487;-82
2021/07/10 06:27:59;;;;;;;5.03;3.83;;;;;;;;;;5001489;28;20042;-82
2021/07/10 06:30:24;;;;;;;5.13;3.88;;;;;;;;;;5015370;28;20029;-82
2021/07/10 06:32:50;;;;;;;5.18;4.22;;;;;;;;;;4999915;28;20487;-81
2021/07/10 06:35:15;;;;;;;4.90;4.25;;;;;;;;;;4999790;28;20037;-82
2021/07/10 06:37:41;;;;;;;4.63;4.03;;;;;;;;;;5016572;28;20127;-83
2021/07/10 06:40:08;;;;;;;5.22;3.65;;;;;;;;;;4999860;28;20040;-82
2021/07/10 06:42:33;;;;;;;5.60;3.78;;;;;;;;;;5017045;28;20033;-87
2021/07/10 06:45:00;;;;;;;4.60;3.75;;;;;;;;;;5007633;28;20060;-87
2021/07/10 06:47:29;;;;;;;5.20;3.60;;;;;;;;;;4980905;28;20030;-87
2021/07/10 06:49:55;;;;;;;4.93;3.78;;;;;;;;;;5017374;28;20033;-87
2021/07/10 06:52:22;;;;;;;5.30;4.28;;;;;;;;;;5001188;28;20089;-87
2021/07/10 06:54:48;;;;;;;4.50;3.22;;;;;;;;;;5017189;28;20034;-88
2021/07/10 06:57:14;;;;;;;4.80;3.75;;;;;;;;;;5000916;28;20041;-88
2021/07/10 06:59:43;;;;;;;5.03;4.00;;;;;;;;;;5001134;28;20120;-88
2021/07/10 07:02:10;;;;;;;5.50;3.88;;;;;;;;;;5000846;28;20036;-87
2021/07/10 07:04:38;;;;;;;5.20;3.83;;;;;;;;;;4984322;28;20112;-88
2021/07/10 07:07:05;;;;;;;4.15;3.45;;;;;;;;;;4985256;28;20033;-87
2021/07/10 07:09:31;;;;;;;5.05;4.18;;;;;;;;;;4984879;28;20083;-88
2021/07/10 07:11:57;;;;;;;4.07;3.63;;;;;;;;;;4984908;28;20029;-88
2021/07/10 07:14:25;;;;;;;4.32;3.80;;;;;;;;;;5000510;28;20116;-87
2021/07/10 07:16:50;;;;;;;4.07;3.67;;;;;;;;;;4984553;28;20120;-87
2021/07/10 07:19:17;;;;;;;3.90;3.50;;;;;;;;;;5000680;28;20104;-88
2021/07/10 07:21:43;;;;;;;4.25;3.72;;;;;;;;;;5000947;28;20029;-88
2021/07/10 07:24:09;;;;;;;4.82;3.97;;;;;;;;;;5000748;28;20068;-87
2021/07/10 07:26:35;;;;;;;6.53;4.00;;;;;;;;;;5000668;28;20044;-87
2021/07/10 07:29:03;;;;;;;4.72;3.78;;;;;;;;;;5000284;28;20585;-87
2021/07/10 07:31:34;;;;;;;6.20;3.83;;;;;;;;;;5000490;28;20057;-88
2021/07/10 07:34:02;;;;;;;5.38;4.15;;;;;;;;;;5000403;28;20033;-87
2021/07/10 07:36:28;;;;;;;5.70;3.90;;;;;;;;;;5000421;28;20041;-84
2021/07/10 07:38:53;;;;;;;5.63;3.50;;;;;;;;;;4999998;28;20030;-86
2021/07/10 07:41:20;;;;;;;4.45;3.70;;;;;;;;;;5000230;28;20029;-87
2021/07/10 07:43:46;;;;;;;5.43;3.88;;;;;;;;;;4984319;28;20025;-88
2021/07/10 07:46:13;;;;;;;4.53;3.83;;;;;;;;;;5000172;28;20048;-87
2021/07/10 07:48:43;;;;;;;4.72;4.28;;;;;;;;;;4984010;28;20044;-87
2021/07/10 07:51:11;;;;;;;7.10;4.07;;;;;;;;;;4996810;28;20037;-86
2021/07/10 07:53:37;;;;;;;5.38;4.00;;;;;;;;;;4996643;28;20049;-87
2021/07/10 07:56:04;;;;;;;5.22;4.05;;;;;;;;;;4996441;28;20041;-87
2021/07/10 07:58:30;;;;;;;6.40;4.20;;;;;;;;;;4996163;28;20519;-87
2021/07/10 08:00:56;;;;;;;4.90;4.03;;;;;;;;;;5030091;28;20069;-86
2021/07/10 08:03:25;;;;;;;7.07;4.43;;;;;;;;;;4984166;28;20025;-87
2021/07/10 08:05:51;;;;;;;5.55;4.70;;;;;;;;;;4999420;28;20033;-86
2021/07/10 08:08:18;;;;;;;6.75;4.80;;;;;;;;;;5014736;28;20018;-86
2021/07/10 08:10:43;;;;;;;5.40;4.60;;;;;;;;;;5015665;28;20041;-86
2021/07/10 08:13:09;;;;;;;6.93;4.40;;;;;;;;;;4999328;28;20025;-86
2021/07/10 08:15:34;;;;;;;5.95;4.57;;;;;;;;;;4998990;28;20029;-87
2021/07/10 08:18:01;;;;;;;7.95;5.40;;;;;;;;;;4998816;28;20032;-86
2021/07/10 08:20:28;;;;;;;6.97;4.75;;;;;;;;;;4999110;28;20093;-86
2021/07/10 08:22:54;;;;;;;7.00;4.80;;;;;;;;;;4998980;28;20030;-86
2021/07/10 08:25:20;;;;;;;7.43;4.13;;;;;;;;;;4982775;28;20039;-87
2021/07/10 08:27:46;;;;;;;5.95;4.28;;;;;;;;;;4983285;28;20095;-87
2021/07/10 08:30:13;;;;;;;7.13;4.90;;;;;;;;;;4982117;28;20030;-87
2021/07/10 08:32:40;;;;;;;7.10;4.60;;;;;;;;;;4999809;28;20036;-87
2021/07/10 08:35:06;;;;;;;6.80;4.47;;;;;;;;;;4983167;28;20037;-87
2021/07/10 08:37:33;;;;;;;7.07;5.45;;;;;;;;;;4998734;28;20143;-87
2021/07/10 08:40:00;;;;;;;5.68;4.78;;;;;;;;;;5015541;28;20022;-86
2021/07/10 08:42:27;;;;;;;9.93;6.70;;;;;;;;;;4999546;28;20487;-87
2021/07/10 08:44:54;;;;;;;7.13;5.53;;;;;;;;;;4998214;28;20040;-87
2021/07/10 08:47:20;;;;;;;6.85;5.88;;;;;;;;;;4998790;28;20033;-87
2021/07/10 08:49:46;;;;;;;7.50;5.90;;;;;;;;;;4999280;28;20038;-87
2021/07/10 08:52:14;;;;;;;6.20;5.60;;;;;;;;;;4998864;28;20064;-87
2021/07/10 08:54:41;;;;;;;6.40;5.40;;;;;;;;;;4998840;28;20399;-87
2021/07/10 08:57:08;;;;;;;7.75;5.13;;;;;;;;;;5015083;28;20120;-86
2021/07/10 08:59:36;;;;;;;5.97;5.35;;;;;;;;;;4998590;28;20517;-87
2021/07/10 09:02:05;;;;;;;7.30;5.50;;;;;;;;;;5014907;28;20079;-87
2021/07/10 09:04:31;;;;;;;6.28;5.40;;;;;;;;;;5011740;28;20037;-88
2021/07/10 09:06:56;;;;;;;6.85;4.90;;;;;;;;;;4982100;28;20026;-87
2021/07/10 09:09:41;;;;;;;5.47;4.40;;;;;;;;;;4998936;28;20116;-88
2021/07/10 09:12:06;;;;;;;5.50;4.95;;;;;;;;;;4982129;28;20111;-87
2021/07/10 09:14:32;;;;;;;6.18;5.25;;;;;;;;;;4982103;28;20482;-86
2021/07/10 09:17:20;;;;;;;7.28;6.05;;;;;;;;;;4982407;28;20036;-87
2021/07/10 09:19:46;;;;;;;8.35;6.55;;;;;;;;;;5009788;28;20115;-87
2021/07/10 09:22:12;;;;;;;9.68;5.78;;;;;;;;;;5015089;28;20048;-88
2021/07/10 09:24:39;;;;;;;6.90;4.60;;;;;;;;;;4998422;28;20033;-87
2021/07/10 09:27:06;;;;;;;9.45;4.90;;;;;;;;;;4998384;28;20026;-87
2021/07/10 09:29:37;;;;;;;7.55;4.55;;;;;;;;;;5014283;28;20041;-87
2021/07/10 09:32:04;;;;;;;5.03;4.00;;;;;;;;;;4998265;28;20022;-87
2021/07/10 09:34:36;;;;;;;6.20;4.20;;;;;;;;;;5014468;28;20132;-87
2021/07/10 09:37:04;;;;;;;;;;;;;;;;;;5047459;28;20026;-87
2021/07/10 09:39:36;;;;;;;5.95;4.60;;;;;;;;;;4997862;28;19909;-88
2021/07/10 09:42:02;;;;;;;7.68;4.45;;;;;;;;;;4998324;28;20026;-87
2021/07/10 09:44:46;;;;;;;4.93;3.50;;;;;;;;;;4997495;28;20105;-88
2021/07/10 09:47:13;;;;;;;5.53;3.63;;;;;;;;;;4998195;28;20033;-88
2021/07/10 09:49:41;;;;;;;5.50;3.42;;;;;;;;;;4998832;28;20033;-89
2021/07/10 09:52:17;;;;;;;5.03;3.58;;;;;;;;;;5015131;28;20510;-88
2021/07/10 09:54:46;;;;;;;5.28;3.45;;;;;;;;;;4998760;28;20083;-89
2021/07/10 09:57:21;;;;;;;4.53;2.97;;;;;;;;;;5014833;28;20048;-89
2021/07/10 09:59:59;;;;;;;4.30;3.53;;;;;;;;;;4995190;28;20038;-88
2021/07/10 10:02:29;;;;;;;4.35;2.72;;;;;;;;;;4992716;28;20060;-88
2021/07/10 10:05:07;;;;;;;4.88;2.90;;;;;;;;;;4982394;28;20030;-88
2021/07/10 10:08:04;;;;;;;4.78;2.70;;;;;;;;;;5014983;28;20099;-88
2021/07/10 10:10:35;;;;;;;4.70;3.03;;;;;;;;;;4998712;28;20401;-88
2021/07/10 10:13:09;;;;;;;3.95;2.80;;;;;;;;;;4982042;28;20064;-88
2021/07/10 10:15:41;;;;;;;14.50;3.58;;;;;;;;;;5013925;28;20128;-89
2021/07/10 10:18:07;;;;;;;4.93;3.10;;;;;;;;;;4998851;28;20029;-89
2021/07/10 10:20:33;;;;;;;4.07;2.78;;;;;;;;;;4998575;28;20037;-88
2021/07/10 10:23:00;;;;;;;3.53;2.60;;;;;;;;;;4983454;28;20060;-88
2021/07/10 10:25:26;;;;;;;4.70;2.90;;;;;;;;;;4985868;28;20029;-88
2021/07/10 10:27:52;;;;;;;5.22;2.72;;;;;;;;;;4985408;28;20033;-87
2021/07/10 10:30:18;;;;;;;4.60;3.33;;;;;;;;;;4985291;28;20030;-87
2021/07/10 10:32:44;;;;;;;4.47;2.85;;;;;;;;;;4985190;28;20111;-87
2021/07/10 10:35:12;;;;;;;4.22;2.92;;;;;;;;;;4998856;28;20503;-87
2021/07/10 10:37:37;;;;;;;4.25;3.03;;;;;;;;;;4997711;28;20392;-87
2021/07/10 10:40:08;;;;;;;4.65;2.70;;;;;;;;;;4981902;28;20042;-87
2021/07/10 10:42:35;;;;;;;3.67;2.80;;;;;;;;;;4998988;28;20112;-87
2021/07/10 10:45:03;;;;;;;4.47;3.25;;;;;;;;;;4984792;28;20033;-87
2021/07/10 10:47:42;;;;;;;8.10;2.85;;;;;;;;;;5001156;28;20025;-87
2021/07/10 10:50:19;;;;;;;4.65;2.83;;;;;;;;;;4981072;28;20038;-86
2021/07/10 10:52:47;;;;;;;3.20;2.28;;;;;;;;;;5001183;28;20064;-87
2021/07/10 10:55:36;;;;;;;3.63;2.30;;;;;;;;;;4984013;28;20389;-88
2021/07/10 10:58:02;;;;;;;3.95;2.50;;;;;;;;;;5014235;28;20033;-86
2021/07/10 11:00:33;;;;;;;3.40;2.15;;;;;;;;;;5001688;28;20135;-87
2021/07/10 11:03:01;;;;;;;4.65;2.78;;;;;;;;;;4985940;28;20399;-87
2021/07/10 11:05:33;;;;;;;5.30;2.60;;;;;;;;;;5017247;28;20374;-87
2021/07/10 11:08:20;;;;;;;5.70;2.88;;;;;;;;;;5000616;28;20032;-87
2021/07/10 11:10:58;;;;;;;5.45;2.92;;;;;;;;;;5033001;28;20040;-86
2021/07/10 11:13:41;;;;;;;4.32;3.10;;;;;;;;;;5018453;28;20426;-86
2021/07/10 11:16:08;;;;;;;9.68;4.50;;;;;;;;;;4996779;28;20444;-87
2021/07/10 11:18:51;;;;;;;10.07;5.35;;;;;;;;;;4999850;28;20479;-87
2021/07/10 11:21:38;;;;;;;12.27;9.85;;;;;;;;;;5013777;28;20045;-87
2021/07/10 11:24:25;;;;;;;5.38;3.50;;;;;;;;;;4996568;28;20124;-87
2021/07/10 11:26:53;;;;;;;6.60;3.65;;;;;;;;;;5018146;28;20032;-87
2021/07/10 11:29:23;;;;;;;4.45;3.08;;;;;;;;;;5011857;28;20030;-87
2021/07/10 11:31:51;;;;;;;7.22;4.60;;;;;;;;;;4997174;28;20033;-88
2021/07/10 11:34:18;;;;;;;5.00;3.33;;;;;;;;;;5013529;28;20135;-88
2021/07/10 11:36:55;;;;;;;3.97;2.47;;;;;;;;;;4996982;28;20034;-87
2021/07/10 11:39:25;;;;;;;4.75;2.70;;;;;;;;;;4999306;28;20028;-87
2021/07/10 11:41:52;;;;;;;5.07;2.60;;;;;;;;;;5019923;28;20059;-88
2021/07/10 11:44:29;;;;;;;2.55;1.90;;;;;;;;;;5016688;28;20043;-88
2021/07/10 11:46:59;;;;;;;4.47;2.40;;;;;;;;;;5000553;28;20041;-88
2021/07/10 11:49:39;;;;;;;3.85;2.58;;;;;;;;;;5016623;28;20018;-88
2021/07/10 11:52:24;;;;;;;3.33;2.63;;;;;;;;;;5000156;28;20025;-87
2021/07/10 11:54:52;;;;;;;4.25;2.38;;;;;;;;;;5012639;28;20045;-88
2021/07/10 11:57:21;;;;;;;4.28;3.10;;;;;;;;;;5011188;28;20036;-87
2021/07/10 11:59:47;;;;;;;6.82;4.05;;;;;;;;;;4999734;28;20061;-88
2021/07/10 12:02:28;;;;;;;7.80;4.68;;;;;;;;;;4999458;28;20040;-87
2021/07/10 12:05:19;;;;;;;6.78;3.88;;;;;;;;;;5049124;28;20147;-88
2021/07/10 12:07:51;;;;;;;5.22;3.90;;;;;;;;;;5015816;28;20025;-88
2021/07/10 12:10:21;;;;;;;7.90;3.60;;;;;;;;;;5032472;28;20046;-87
2021/07/10 12:12:54;;;;;;;5.13;3.63;;;;;;;;;;5016232;28;20048;-86
2021/07/10 12:15:30;;;;;;;4.82;2.92;;;;;;;;;;5016142;28;20022;-87
2021/07/10 12:17:57;;;;;;;3.97;2.40;;;;;;;;;;4999240;28;20026;-87
2021/07/10 12:20:27;;;;;;;3.83;2.67;;;;;;;;;;5002004;28;20017;-87
2021/07/10 12:22:55;;;;;;;3.60;2.63;;;;;;;;;;5015193;28;20048;-87
2021/07/10 12:25:22;;;;;;;4.05;2.05;;;;;;;;;;4995670;28;20034;-87
2021/07/10 12:27:58;;;;;;;3.40;2.03;;;;;;;;;;5014016;28;20034;-87
2021/07/10 12:30:42;;;;;;;4.18;2.50;;;;;;;;;;4995398;28;20026;-85
2021/07/10 12:33:35;;;;;;;4.72;2.67;;;;;;;;;;5012081;28;20052;-86
2021/07/10 12:36:05;;;;;;;4.35;2.70;;;;;;;;;;5012304;28;20032;-88
2021/07/10 12:38:34;;;;;;;6.22;2.38;;;;;;;;;;4997192;28;20172;-88
2021/07/10 12:41:18;;;;;;;3.60;2.53;;;;;;;;;;4998789;28;20572;-87
2021/07/10 12:43:45;;;;;;;4.65;2.10;;;;;;;;;;5015395;28;20036;-86
2021/07/10 12:46:10;;;;;;;4.05;2.58;;;;;;;;;;4981969;28;20021;-87
2021/07/10 12:48:36;;;;;;;5.00;2.70;;;;;;;;;;4995379;28;20030;-87
2021/07/10 12:51:01;;;;;;;3.33;2.20;;;;;;;;;;4998059;28;20038;-88
2021/07/10 12:53:32;;;;;;;5.80;2.80;;;;;;;;;;4981918;28;20033;-87
2021/07/10 12:56:27;;;;;;;3.47;2.55;;;;;;;;;;4999339;28;20021;-87
2021/07/10 12:58:54;;;;;;;3.88;2.72;;;;;;;;;;5000060;28;20025;-86
2021/07/10 13:01:21;;;;;;;4.55;3.10;;;;;;;;;;4986724;28;20034;-88
2021/07/10 13:03:54;;;;;;;5.50;3.35;;;;;;;;;;4998865;28;20095;-86
2021/07/10 13:06:21;;;;;;;3.97;2.65;;;;;;;;;;4981379;28;20025;-89
2021/07/10 13:08:55;;;;;;;3.75;3.17;;;;;;;;;;5014307;28;20062;-87
2021/07/10 13:11:24;;;;;;;4.88;2.83;;;;;;;;;;5014866;28;20057;-87
2021/07/10 13:13:57;;;;;;;5.00;2.45;;;;;;;;;;5030647;28;20033;-86
2021/07/10 13:16:33;;;;;;;3.28;2.60;;;;;;;;;;4999198;28;20040;-88
2021/07/10 13:19:02;;;;;;;3.03;2.42;;;;;;;;;;5011887;28;20128;-86
2021/07/10 13:21:30;;;;;;;5.55;2.40;;;;;;;;;;4994649;28;20037;-86
2021/07/10 13:24:03;;;;;;;5.65;2.33;;;;;;;;;;4994843;28;20033;-86
2021/07/10 13:26:34;;;;;;;5.93;2.20;;;;;;;;;;4979060;28;20026;-87
2021/07/10 13:29:04;;;;;;;11.20;2.90;;;;;;;;;;4994887;28;20073;-87
2021/07/10 13:31:36;;;;;;;4.03;2.35;;;;;;;;;;5011034;28;20030;-88
2021/07/10 13:34:08;;;;;;;3.55;2.25;;;;;;;;;;5012334;28;20030;-87
2021/07/10 13:36:38;;;;;;;4.15;2.13;;;;;;;;;;4998635;28;20103;-88
2021/07/10 13:39:11;;;;;;;4.40;1.90;;;;;;;;;;4999229;28;20126;-86
2021/07/10 13:41:53;;;;;;;3.10;2.10;;;;;;;;;;4993169;28;20515;-86
2021/07/10 13:44:19;;;;;;;3.72;2.42;;;;;;;;;;5024407;28;20029;-87
2021/07/10 13:46:47;;;;;;;5.50;3.20;;;;;;;;;;5013666;28;20030;-86
2021/07/10 13:49:20;;;;;;;11.05;7.68;;;;;;;;;;5014133;28;20095;-88
2021/07/10 13:51:52;;;;;;;9.85;6.30;;;;;;;;;;4998152;28;20500;-86
2021/07/10 13:54:27;;;;;;;7.15;4.80;;;;;;;;;;4982394;28;20033;-87
2021/07/10 13:57:14;;;;;;;7.00;4.15;;;;;;;;;;4998881;28;20087;-87
2021/07/10 13:59:56;;;;;;;6.13;4.28;;;;;;;;;;4985871;28;20553;-86
2021/07/10 14:02:22;;;;;;;3.88;2.40;;;;;;;;;;5008843;28;20040;-86
2021/07/10 14:05:24;;;;;;;5.55;2.17;;;;;;;;;;5017809;28;20025;-83
2021/07/10 14:07:53;;;;;;;3.10;1.87;;;;;;;;;;4983556;28;20037;-85
2021/07/10 14:10:22;;;;;;;3.85;1.75;;;;;;;;;;4997544;28;20345;-84
2021/07/10 14:12:48;;;;;;;3.47;2.42;;;;;;;;;;5008689;28;20391;-85
2021/07/10 14:15:15;;;;;;;3.53;1.90;;;;;;;;;;4985620;28;20029;-85
2021/07/10 14:17:40;;;;;;;4.38;2.03;;;;;;;;;;5018071;28;20113;-85
2021/07/10 14:20:06;;;;;;;3.63;1.75;;;;;;;;;;5015511;28;20408;-87
2021/07/10 14:22:33;;;;;;;3.50;2.13;;;;;;;;;;5009018;28;20025;-87
2021/07/10 14:25:00;;;;;;;2.88;1.83;;;;;;;;;;5017533;28;20388;-88
2021/07/10 14:27:25;;;;;;;2.97;2.17;;;;;;;;;;5001323;28;20032;-87
2021/07/10 14:29:51;;;;;;;4.72;2.17;;;;;;;;;;5001005;28;20110;-87
2021/07/10 14:32:16;;;;;;;4.70;2.47;;;;;;;;;;5017692;28;20037;-88
2021/07/10 14:34:41;;;;;;;3.95;2.47;;;;;;;;;;5017234;28;20051;-87
2021/07/10 14:37:07;;;;;;;4.22;2.08;;;;;;;;;;5000713;28;20036;-87
2021/07/10 14:39:33;;;;;;;4.30;2.38;;;;;;;;;;4985979;28;20030;-85
2021/07/10 14:42:00;;;;;;;4.55;1.98;;;;;;;;;;4998004;28;20079;-85
2021/07/10 14:44:26;;;;;;;2.95;2.05;;;;;;;;;;4997321;28;20030;-85
2021/07/10 14:46:51;;;;;;;5.70;2.67;;;;;;;;;;4997750;28;20462;-85
2021/07/10 14:49:18;;;;;;;4.07;2.53;;;;;;;;;;5000105;28;20029;-86